createdAt,value
2019-05-18T00:00:56.162Z,52.73
2019-05-18T00:02:00.686Z,51.80
2019-05-18T00:03:06.098Z,49.88
2019-05-18T00:04:10.617Z,49.58
2019-05-18T00:05:15.908Z,48.05
2019-05-18T00:06:20.403Z,52.38
2019-05-18T00:07:25.376Z,47.40
2019-05-18T00:08:29.806Z,49.50
2019-05-18T00:09:34.941Z,47.43
2019-05-18T00:10:39.367Z,48.68
2019-05-18T00:11:44.692Z,48.45
2019-05-18T00:12:49.187Z,48.80
2019-05-18T00:13:54.165Z,48.45
2019-05-18T00:14:58.613Z,48.40
2019-05-18T00:16:03.949Z,48.78
2019-05-18T00:17:23.168Z,49.70
2019-05-18T00:18:15.408Z,52.58
2019-05-18T00:19:20.138Z,51.45
2019-05-18T00:20:25.129Z,52.00
2019-05-18T00:21:29.541Z,52.10
2019-05-18T00:22:34.589Z,51.08
2019-05-18T00:23:39.018Z,53.28
2019-05-18T00:24:44.108Z,51.40
2019-05-18T00:25:48.579Z,50.88
2019-05-18T00:26:55.183Z,51.77
2019-05-18T00:27:59.679Z,51.08
2019-05-18T00:29:05.157Z,55.92
2019-05-18T00:30:11.405Z,53.70
2019-05-18T00:31:16.838Z,50.98
2019-05-18T00:32:21.762Z,57.78
2019-05-18T00:33:26.812Z,51.90
2019-05-18T00:34:31.348Z,53.83
2019-05-18T00:35:36.631Z,52.53
2019-05-18T00:36:41.346Z,53.35
2019-05-18T00:37:46.695Z,53.60
2019-05-18T00:38:51.122Z,55.10
2019-05-18T00:39:56.124Z,54.53
2019-05-18T00:41:00.547Z,55.88
2019-05-18T00:42:05.669Z,55.67
2019-05-18T00:43:11.597Z,55.48
2019-05-18T00:44:16.578Z,54.67
2019-05-18T00:45:21.160Z,55.70
2019-05-18T00:46:26.143Z,58.60
2019-05-18T00:47:40.914Z,57.27
2019-05-18T00:48:37.238Z,60.92
2019-05-18T00:49:41.679Z,60.92
2019-05-18T00:50:46.662Z,58.35
2019-05-18T00:51:51.159Z,57.05
2019-05-18T00:52:56.518Z,55.60
2019-05-18T00:54:01.330Z,61.73
2019-05-18T00:55:08.785Z,58.73
2019-05-18T00:56:13.196Z,60.43
2019-05-18T00:57:18.199Z,59.42
2019-05-18T00:58:22.621Z,57.48
2019-05-18T00:59:27.677Z,59.95
2019-05-18T01:00:32.121Z,65.22
2019-05-18T01:01:37.172Z,60.65
2019-05-18T01:02:41.970Z,69.00
2019-05-18T01:03:46.942Z,67.22
2019-05-18T01:04:51.384Z,64.85
2019-05-18T01:05:56.376Z,63.08
2019-05-18T01:07:02.010Z,61.48
2019-05-18T01:08:07.058Z,73.10
2019-05-18T01:09:11.552Z,68.95
2019-05-18T01:10:17.189Z,68.30
2019-05-18T01:11:21.748Z,64.70
2019-05-18T01:12:26.729Z,67.03
2019-05-18T01:13:31.225Z,71.00
2019-05-18T01:14:36.203Z,76.42
2019-05-18T01:15:40.713Z,74.80
2019-05-18T01:16:45.758Z,78.42
2019-05-18T01:17:57.363Z,73.33
2019-05-18T01:18:56.864Z,71.97
2019-05-18T01:20:01.447Z,72.67
2019-05-18T01:21:06.494Z,74.58
2019-05-18T01:22:11.249Z,75.47
2019-05-18T01:23:16.257Z,85.92
2019-05-18T01:24:20.662Z,77.32
2019-05-18T01:25:25.932Z,81.05
2019-05-18T01:26:30.776Z,79.45
2019-05-18T01:27:35.774Z,78.45
2019-05-18T01:28:40.180Z,83.37
2019-05-18T01:29:46.624Z,85.45
2019-05-18T01:30:51.138Z,78.62
2019-05-18T01:31:56.126Z,81.95
2019-05-18T01:33:00.551Z,77.97
2019-05-18T01:34:05.670Z,72.90
2019-05-18T01:35:11.120Z,81.32
2019-05-18T01:36:16.099Z,81.90
2019-05-18T01:37:20.526Z,78.20
2019-05-18T01:38:25.574Z,72.58
2019-05-18T01:39:31.508Z,74.87
2019-05-18T01:40:36.508Z,85.72
2019-05-18T01:41:41.389Z,88.82
2019-05-18T01:42:46.367Z,81.02
2019-05-18T01:43:50.790Z,85.32
2019-05-18T01:44:55.783Z,84.37
2019-05-18T01:46:00.296Z,80.15
2019-05-18T01:47:05.819Z,82.10
2019-05-18T01:48:14.288Z,85.67
2019-05-18T01:49:16.948Z,77.80
2019-05-18T01:50:21.458Z,77.85
2019-05-18T01:51:26.817Z,81.15
2019-05-18T01:52:31.244Z,79.35
2019-05-18T01:53:36.223Z,76.97
2019-05-18T01:54:40.726Z,79.65
2019-05-18T01:55:45.878Z,82.05
2019-05-18T01:56:50.289Z,82.45
2019-05-18T01:57:55.631Z,79.07
2019-05-18T01:59:00.050Z,82.33
2019-05-18T02:00:07.228Z,84.77
2019-05-18T02:01:11.633Z,78.37
2019-05-18T02:02:16.958Z,75.12
2019-05-18T02:03:21.672Z,76.77
2019-05-18T02:04:26.651Z,79.53
2019-05-18T02:05:31.110Z,85.40
2019-05-18T02:06:36.152Z,80.67
2019-05-18T02:07:40.905Z,79.85
2019-05-18T02:08:45.850Z,80.32
2019-05-18T02:09:50.297Z,75.90
2019-05-18T02:10:55.315Z,81.15
2019-05-18T02:11:59.730Z,75.22
2019-05-18T02:13:05.053Z,86.72
2019-05-18T02:14:09.709Z,82.55
2019-05-18T02:15:16.296Z,80.60
2019-05-18T02:16:20.734Z,82.92
2019-05-18T02:17:25.771Z,78.87
2019-05-18T02:18:30.193Z,81.57
2019-05-18T02:19:35.503Z,76.60
2019-05-18T02:20:40.026Z,80.75
2019-05-18T02:21:45.450Z,78.57
2019-05-18T02:22:49.866Z,76.28
2019-05-18T02:23:54.914Z,84.07
2019-05-18T02:24:59.333Z,76.77
2019-05-18T02:26:04.328Z,84.07
2019-05-18T02:27:09.819Z,80.22
2019-05-18T02:28:14.872Z,84.35
2019-05-18T02:29:20.634Z,82.12
2019-05-18T02:30:25.678Z,77.30
2019-05-18T02:31:30.121Z,77.95
2019-05-18T02:32:35.109Z,79.65
2019-05-18T02:33:39.529Z,85.50
2019-05-18T02:34:44.497Z,82.27
2019-05-18T02:35:48.917Z,95.05
2019-05-18T02:36:53.978Z,91.40
2019-05-18T02:38:16.944Z,107.45
2019-05-18T02:39:22.226Z,95.35
2019-05-18T02:40:26.744Z,109.37
2019-05-18T02:41:31.877Z,108.85
2019-05-18T02:42:36.449Z,103.78
2019-05-18T02:43:41.520Z,110.72
2019-05-18T02:44:45.955Z,100.78
2019-05-18T02:45:50.902Z,93.87
2019-05-18T02:46:55.662Z,95.70
2019-05-18T02:48:00.647Z,104.35
2019-05-18T02:49:05.509Z,90.05
2019-05-18T02:50:10.728Z,106.50
2019-05-18T02:51:15.161Z,93.27
2019-05-18T02:52:20.491Z,89.50
2019-05-18T02:53:24.906Z,86.42
2019-05-18T02:54:29.882Z,93.97
2019-05-18T02:55:34.361Z,87.20
2019-05-18T02:56:39.359Z,84.75
2019-05-18T02:57:43.780Z,87.50
2019-05-18T02:58:48.822Z,92.90
2019-05-18T02:59:53.247Z,92.75
2019-05-18T03:00:58.288Z,84.00
2019-05-18T03:02:02.735Z,95.65
2019-05-18T03:03:07.774Z,93.12
2019-05-18T03:04:12.274Z,104.85
2019-05-18T03:05:20.342Z,100.82
2019-05-18T03:06:24.836Z,116.45
2019-05-18T03:07:29.883Z,126.35
2019-05-18T03:08:34.377Z,118.40
2019-05-18T03:09:39.768Z,120.72
2019-05-18T03:10:44.261Z,115.40
2019-05-18T03:11:49.399Z,115.20
2019-05-18T03:12:53.826Z,111.60
2019-05-18T03:13:58.947Z,105.20
2019-05-18T03:15:03.625Z,104.23
2019-05-18T03:16:08.723Z,103.85
2019-05-18T03:17:13.158Z,103.53
2019-05-18T03:18:18.136Z,106.22
2019-05-18T03:19:22.629Z,104.23
2019-05-18T03:20:27.625Z,103.72
2019-05-18T03:21:32.211Z,106.05
2019-05-18T03:22:37.343Z,95.30
2019-05-18T03:23:42.965Z,91.70
2019-05-18T03:24:47.936Z,96.47
2019-05-18T03:25:52.364Z,99.03
2019-05-18T03:26:57.418Z,92.15
2019-05-18T03:28:01.843Z,94.67
2019-05-18T03:29:06.820Z,92.12
2019-05-18T03:30:11.678Z,91.08
2019-05-18T03:31:18.228Z,89.42
2019-05-18T03:32:22.700Z,90.45
2019-05-18T03:33:30.034Z,92.10
2019-05-18T03:34:33.875Z,85.22
2019-05-18T03:35:38.847Z,93.45
2019-05-18T03:36:43.367Z,94.22
2019-05-18T03:37:48.408Z,90.57
2019-05-18T03:38:52.830Z,93.15
2019-05-18T03:39:57.807Z,111.12
2019-05-18T03:41:02.374Z,98.67
2019-05-18T03:42:07.367Z,95.97
2019-05-18T03:43:11.792Z,103.30
2019-05-18T03:44:16.778Z,97.27
2019-05-18T03:45:21.291Z,105.72
2019-05-18T03:46:26.279Z,98.65
2019-05-18T03:47:30.720Z,100.55
2019-05-18T03:48:35.712Z,101.65
2019-05-18T03:49:40.118Z,99.92
2019-05-18T03:50:45.101Z,106.58
2019-05-18T03:51:49.547Z,108.17
2019-05-18T03:52:54.949Z,101.55
2019-05-18T03:53:59.384Z,112.37
2019-05-18T03:55:04.904Z,101.22
2019-05-18T03:56:09.331Z,107.43
2019-05-18T03:57:14.336Z,100.38
2019-05-18T03:58:18.791Z,103.12
2019-05-18T03:59:23.754Z,103.83
2019-05-18T04:00:28.175Z,122.75
2019-05-18T04:01:33.148Z,115.30
2019-05-18T04:02:37.953Z,113.08
2019-05-18T04:03:42.951Z,107.10
2019-05-18T04:04:47.382Z,113.17
2019-05-18T04:05:52.355Z,122.80
2019-05-18T04:06:56.773Z,122.72
2019-05-18T04:08:02.849Z,135.65
2019-05-18T04:09:07.272Z,127.90
2019-05-18T04:10:12.774Z,126.53
2019-05-18T04:11:17.209Z,131.00
2019-05-18T04:12:22.207Z,131.22
2019-05-18T04:13:27.714Z,112.95
2019-05-18T04:14:34.049Z,114.80
2019-05-18T04:15:38.480Z,108.97
2019-05-18T04:16:43.464Z,117.57
2019-05-18T04:17:47.922Z,119.95
2019-05-18T04:18:52.951Z,115.47
2019-05-18T04:19:57.346Z,106.55
2019-05-18T04:21:05.377Z,109.45
2019-05-18T04:22:09.963Z,108.45
2019-05-18T04:23:14.965Z,109.30
2019-05-18T04:24:19.393Z,105.95
2019-05-18T04:25:24.526Z,102.35
2019-05-18T04:26:28.955Z,105.87
2019-05-18T04:27:34.031Z,107.17
2019-05-18T04:28:38.768Z,100.45
2019-05-18T04:29:43.795Z,97.10
2019-05-18T04:30:48.219Z,94.90
2019-05-18T04:31:53.274Z,99.58
2019-05-18T04:32:57.716Z,98.60
2019-05-18T04:34:02.696Z,91.72
2019-05-18T04:35:07.887Z,98.95
2019-05-18T04:36:12.850Z,93.05
2019-05-18T04:37:17.552Z,90.67
2019-05-18T04:38:22.550Z,89.37
2019-05-18T04:39:26.974Z,92.37
2019-05-18T04:40:32.275Z,90.25
2019-05-18T04:41:36.702Z,87.42
2019-05-18T04:42:41.697Z,80.53
2019-05-18T04:43:47.092Z,86.92
2019-05-18T04:44:52.367Z,83.37
2019-05-18T04:45:56.866Z,85.30
2019-05-18T04:47:01.849Z,79.35
2019-05-18T04:48:06.291Z,81.35
2019-05-18T04:49:11.271Z,74.95
2019-05-18T04:50:16.147Z,81.60
2019-05-18T04:51:21.122Z,78.00
2019-05-18T04:52:25.550Z,75.87
2019-05-18T04:53:30.545Z,74.12
2019-05-18T04:54:34.968Z,76.90
2019-05-18T04:55:39.957Z,77.90
2019-05-18T04:56:44.391Z,71.60
2019-05-18T04:57:49.727Z,69.30
2019-05-18T04:58:54.150Z,70.87
2019-05-18T04:59:59.138Z,70.97
2019-05-18T05:01:03.558Z,68.62
2019-05-18T05:02:08.588Z,69.37
2019-05-18T05:03:13.584Z,67.37
2019-05-18T05:04:18.558Z,65.10
2019-05-18T05:05:22.985Z,62.15
2019-05-18T05:06:27.969Z,60.23
2019-05-18T05:07:32.391Z,66.70
2019-05-18T05:08:37.441Z,64.47
2019-05-18T05:09:42.200Z,65.00
2019-05-18T05:10:47.564Z,61.68
2019-05-18T05:11:51.984Z,62.38
2019-05-18T05:12:56.987Z,60.48
2019-05-18T05:14:01.511Z,60.90
2019-05-18T05:15:07.117Z,60.85
2019-05-18T05:16:12.185Z,60.52
2019-05-18T05:17:17.162Z,58.15
2019-05-18T05:18:21.630Z,58.87
2019-05-18T05:19:26.589Z,56.92
2019-05-18T05:20:31.017Z,58.10
2019-05-18T05:21:36.080Z,53.42
2019-05-18T05:22:40.493Z,57.33
2019-05-18T05:23:45.558Z,56.10
2019-05-18T05:24:50.131Z,52.78
2019-05-18T05:25:55.189Z,51.95
2019-05-18T05:26:59.616Z,51.02
2019-05-18T05:28:05.126Z,52.53
2019-05-18T05:29:09.878Z,59.20
2019-05-18T05:30:15.247Z,49.80
2019-05-18T05:31:19.773Z,54.08
2019-05-18T05:32:24.766Z,51.92
2019-05-18T05:33:29.249Z,47.25
2019-05-18T05:34:34.298Z,45.63
2019-05-18T05:35:38.721Z,45.73
2019-05-18T05:36:43.698Z,45.12
2019-05-18T05:37:49.008Z,47.20
2019-05-18T05:38:54.609Z,72.27
2019-05-18T05:39:59.843Z,47.08
2019-05-18T05:41:05.391Z,45.10
2019-05-18T05:42:10.289Z,44.85
2019-05-18T05:43:15.820Z,40.70
2019-05-18T05:44:21.753Z,45.10
2019-05-18T05:45:27.070Z,43.75
2019-05-18T05:46:31.573Z,43.70
2019-05-18T05:47:36.819Z,44.45
2019-05-18T05:48:41.496Z,45.23
2019-05-18T05:49:46.486Z,42.88
2019-05-18T05:50:51.362Z,45.52
2019-05-18T05:51:56.406Z,42.93
2019-05-18T05:53:00.830Z,42.50
2019-05-18T05:54:06.786Z,44.85
2019-05-18T05:55:11.351Z,45.35
2019-05-18T05:56:16.652Z,42.93
2019-05-18T05:57:21.364Z,39.13
2019-05-18T05:58:27.211Z,42.08
2019-05-18T05:59:32.077Z,42.65
2019-05-18T06:00:37.444Z,40.85
2019-05-18T06:01:42.015Z,43.30
2019-05-18T06:02:47.067Z,42.73
2019-05-18T06:03:51.999Z,42.08
2019-05-18T06:04:57.534Z,42.90
2019-05-18T06:06:02.261Z,39.53
2019-05-18T06:07:07.795Z,42.10
2019-05-18T06:08:12.492Z,42.15
2019-05-18T06:09:17.770Z,39.60
2019-05-18T06:10:22.344Z,40.60
2019-05-18T06:11:27.587Z,37.30
2019-05-18T06:12:32.416Z,40.12
2019-05-18T06:13:37.649Z,37.45
2019-05-18T06:14:43.462Z,44.00
2019-05-18T06:15:48.821Z,98.72
2019-05-18T06:16:54.948Z,39.20
2019-05-18T06:18:00.112Z,37.50
2019-05-18T06:19:04.954Z,33.90
2019-05-18T06:20:10.620Z,36.93
2019-05-18T06:21:15.649Z,34.25
2019-05-18T06:22:21.135Z,35.08
2019-05-18T06:23:25.650Z,36.33
2019-05-18T06:24:30.817Z,33.25
2019-05-18T06:25:35.331Z,31.00
2019-05-18T06:26:40.359Z,31.87
2019-05-18T06:27:45.069Z,31.50
2019-05-18T06:28:50.083Z,30.75
2019-05-18T06:29:54.537Z,31.57
2019-05-18T06:30:59.799Z,30.32
2019-05-18T06:32:04.294Z,31.12
2019-05-18T06:33:09.677Z,30.85
2019-05-18T06:34:14.119Z,26.33
2019-05-18T06:35:19.377Z,26.27
2019-05-18T06:36:23.937Z,26.33
2019-05-18T06:37:28.946Z,25.17
2019-05-18T06:38:33.437Z,23.35
2019-05-18T06:39:43.646Z,25.48
2019-05-18T06:40:48.355Z,21.93
2019-05-18T06:41:53.479Z,21.45
2019-05-18T06:42:57.987Z,22.25
2019-05-18T06:44:03.421Z,20.45
2019-05-18T06:45:08.411Z,22.17
2019-05-18T06:46:13.761Z,19.20
2019-05-18T06:47:18.799Z,20.68
2019-05-18T06:48:23.836Z,19.00
2019-05-18T06:49:28.353Z,21.23
2019-05-18T06:50:33.471Z,21.17
2019-05-18T06:51:38.045Z,21.73
2019-05-18T06:52:43.128Z,20.70
2019-05-18T06:53:47.629Z,23.12
2019-05-18T06:54:52.650Z,24.50
2019-05-18T06:55:58.466Z,21.27
2019-05-18T06:57:04.123Z,20.72
2019-05-18T06:58:09.820Z,23.62
2019-05-18T06:59:16.835Z,25.37
2019-05-18T07:00:21.415Z,23.25
2019-05-18T07:01:26.405Z,25.57
2019-05-18T07:02:30.883Z,22.58
2019-05-18T07:03:35.946Z,22.73
2019-05-18T07:04:40.388Z,21.25
2019-05-18T07:05:45.659Z,22.52
2019-05-18T07:06:50.083Z,24.27
2019-05-18T07:07:55.064Z,23.85
2019-05-18T07:08:59.486Z,22.22
2019-05-18T07:10:05.927Z,20.85
2019-05-18T07:11:10.353Z,21.37
2019-05-18T07:12:15.341Z,21.48
2019-05-18T07:13:19.832Z,25.82
2019-05-18T07:14:26.142Z,32.98
2019-05-18T07:15:30.984Z,24.95
2019-05-18T07:16:36.042Z,26.52
2019-05-18T07:17:40.462Z,28.60
2019-05-18T07:18:45.446Z,30.57
2019-05-18T07:19:49.894Z,30.15
2019-05-18T07:20:54.872Z,22.30
2019-05-18T07:21:59.546Z,19.52
2019-05-18T07:23:04.690Z,21.40
2019-05-18T07:24:09.113Z,18.32
2019-05-18T07:25:14.518Z,20.10
2019-05-18T07:26:19.005Z,25.02
2019-05-18T07:27:23.986Z,22.40
2019-05-18T07:28:28.483Z,22.82
2019-05-18T07:29:33.734Z,25.65
2019-05-18T07:30:38.181Z,26.73
2019-05-18T07:31:43.163Z,24.47
2019-05-18T07:32:47.592Z,22.85
2019-05-18T07:33:52.591Z,22.85
2019-05-18T07:34:57.036Z,19.70
2019-05-18T07:36:02.012Z,22.02
2019-05-18T07:37:06.439Z,22.65
2019-05-18T07:38:11.420Z,20.30
2019-05-18T07:39:16.114Z,22.52
2019-05-18T07:40:21.199Z,21.60
2019-05-18T07:41:25.962Z,19.77
2019-05-18T07:42:30.937Z,23.12
2019-05-18T07:43:35.638Z,21.30
2019-05-18T07:44:41.585Z,19.73
2019-05-18T07:45:46.030Z,17.00
2019-05-18T07:46:51.081Z,18.55
2019-05-18T07:47:55.576Z,17.48
2019-05-18T07:49:00.623Z,19.42
2019-05-18T07:50:06.902Z,16.90
2019-05-18T07:51:11.962Z,14.80
2019-05-18T07:52:17.347Z,17.27
2019-05-18T07:53:22.701Z,15.25
2019-05-18T07:54:27.401Z,19.27
2019-05-18T07:55:32.403Z,15.03
2019-05-18T07:56:37.200Z,15.00
2019-05-18T07:57:42.161Z,13.60
2019-05-18T07:58:46.590Z,13.75
2019-05-18T07:59:52.538Z,14.35
2019-05-18T08:00:56.983Z,14.20
2019-05-18T08:02:01.975Z,13.60
2019-05-18T08:03:06.463Z,11.85
2019-05-18T08:04:11.715Z,12.20
2019-05-18T08:05:16.295Z,11.63
2019-05-18T08:06:21.547Z,12.07
2019-05-18T08:07:25.978Z,31.48
2019-05-18T08:08:30.957Z,19.48
2019-05-18T08:09:35.404Z,17.48
2019-05-18T08:10:43.462Z,11.55
2019-05-18T08:11:47.005Z,10.82
2019-05-18T08:12:52.253Z,10.58
2019-05-18T08:13:56.685Z,11.53
2019-05-18T08:15:01.804Z,9.60
2019-05-18T08:16:07.560Z,9.10
2019-05-18T08:17:12.513Z,9.90
2019-05-18T08:18:17.003Z,9.68
2019-05-18T08:19:21.979Z,10.63
2019-05-18T08:20:26.407Z,9.58
2019-05-18T08:21:31.655Z,9.43
2019-05-18T08:22:36.078Z,16.93
2019-05-18T08:23:41.064Z,16.27
2019-05-18T08:24:45.558Z,12.10
2019-05-18T08:25:50.563Z,11.28
2019-05-18T08:26:55.256Z,10.85
2019-05-18T08:28:00.303Z,10.32
2019-05-18T08:29:04.795Z,9.05
2019-05-18T08:30:10.197Z,9.20
2019-05-18T08:31:14.633Z,10.05
2019-05-18T08:32:19.613Z,10.75
2019-05-18T08:33:24.057Z,10.70
2019-05-18T08:34:29.127Z,15.63
2019-05-18T08:35:33.938Z,11.43
2019-05-18T08:36:38.933Z,9.43
2019-05-18T08:37:43.416Z,9.83
2019-05-18T08:38:48.471Z,12.63
2019-05-18T08:39:52.886Z,10.20
2019-05-18T08:40:57.884Z,10.98
2019-05-18T08:42:02.389Z,12.40
2019-05-18T08:43:07.420Z,10.18
2019-05-18T08:44:11.896Z,12.15
2019-05-18T08:45:17.591Z,11.15
2019-05-18T08:46:22.102Z,13.13
2019-05-18T08:47:27.069Z,9.88
2019-05-18T08:48:31.492Z,12.45
2019-05-18T08:49:36.469Z,10.98
2019-05-18T08:50:41.263Z,12.80
2019-05-18T08:51:46.600Z,11.40
2019-05-18T08:52:51.018Z,11.85
2019-05-18T08:53:56.118Z,10.88
2019-05-18T08:55:00.534Z,11.00
2019-05-18T08:56:05.676Z,9.93
2019-05-18T08:57:10.117Z,12.75
2019-05-18T08:58:15.094Z,9.25
2019-05-18T08:59:19.825Z,10.32
2019-05-18T09:00:25.064Z,10.72
2019-05-18T09:01:29.874Z,10.78
2019-05-18T09:02:34.855Z,10.43
2019-05-18T09:03:39.342Z,11.33
2019-05-18T09:04:44.324Z,12.00
2019-05-18T09:05:48.756Z,12.05
2019-05-18T09:06:53.745Z,12.25
2019-05-18T09:07:59.139Z,14.58
2019-05-18T09:09:05.779Z,11.25
2019-05-18T09:10:10.734Z,12.80
2019-05-18T09:11:15.716Z,12.35
2019-05-18T09:12:20.461Z,13.08
2019-05-18T09:13:25.520Z,12.35
2019-05-18T09:14:29.937Z,12.07
2019-05-18T09:15:34.987Z,10.88
2019-05-18T09:16:39.504Z,13.03
2019-05-18T09:17:44.482Z,11.33
2019-05-18T09:18:48.905Z,12.05
2019-05-18T09:19:54.166Z,10.90
2019-05-18T09:20:58.596Z,11.05
2019-05-18T09:22:03.663Z,9.40
2019-05-18T09:23:09.041Z,6.47
2019-05-18T09:24:14.012Z,8.63
2019-05-18T09:25:20.013Z,9.85
2019-05-18T09:26:24.982Z,7.92
2019-05-18T09:27:29.591Z,8.88
2019-05-18T09:28:34.850Z,9.50
2019-05-18T09:29:39.260Z,9.20
2019-05-18T09:30:44.585Z,8.35
2019-05-18T09:31:49.327Z,8.40
2019-05-18T09:32:54.300Z,10.78
2019-05-18T09:33:58.726Z,8.05
2019-05-18T09:35:04.708Z,8.53
2019-05-18T09:36:09.404Z,8.83
2019-05-18T09:37:14.464Z,8.30
2019-05-18T09:38:18.883Z,9.23
2019-05-18T09:39:23.994Z,8.53
2019-05-18T09:40:28.418Z,8.88
2019-05-18T09:41:33.668Z,9.67
2019-05-18T09:42:38.117Z,9.80
2019-05-18T09:43:43.164Z,10.28
2019-05-18T09:44:47.583Z,9.20
2019-05-18T09:45:52.833Z,10.78
2019-05-18T09:46:57.337Z,13.38
2019-05-18T09:48:02.380Z,12.55
2019-05-18T09:49:07.010Z,10.95
2019-05-18T09:50:12.331Z,10.03
2019-05-18T09:51:16.760Z,19.27
2019-05-18T09:52:21.758Z,14.10
2019-05-18T09:53:26.176Z,13.50
2019-05-18T09:54:31.561Z,21.02
2019-05-18T09:55:36.295Z,15.90
2019-05-18T09:56:41.596Z,8.88
2019-05-18T09:57:46.053Z,10.15
2019-05-18T09:58:51.322Z,8.48
2019-05-18T09:59:55.729Z,17.20
2019-05-18T10:01:00.794Z,11.38
2019-05-18T10:02:05.368Z,9.60
2019-05-18T10:03:10.420Z,10.82
2019-05-18T10:04:14.901Z,11.57
2019-05-18T10:05:21.512Z,10.50
2019-05-18T10:06:25.978Z,10.15
2019-05-18T10:07:30.981Z,11.95
2019-05-18T10:08:35.391Z,10.20
2019-05-18T10:09:40.379Z,9.60
2019-05-18T10:10:45.064Z,10.25
2019-05-18T10:11:51.292Z,14.00
2019-05-18T10:12:55.804Z,10.05
2019-05-18T10:14:00.838Z,10.90
2019-05-18T10:15:07.295Z,9.98
2019-05-18T10:16:12.394Z,34.73
2019-05-18T10:17:17.107Z,13.32
2019-05-18T10:18:22.089Z,13.70
2019-05-18T10:19:26.533Z,10.38
2019-05-18T10:20:31.578Z,13.70
2019-05-18T10:21:36.064Z,12.68
2019-05-18T10:22:53.524Z,9.65
2019-05-18T10:23:47.233Z,9.93
2019-05-18T10:24:52.209Z,10.03
2019-05-18T10:25:56.977Z,9.28
2019-05-18T10:27:03.289Z,9.98
2019-05-18T10:28:07.773Z,9.03
2019-05-18T10:29:12.809Z,9.08
2019-05-18T10:30:17.582Z,10.15
2019-05-18T10:31:22.621Z,16.05
2019-05-18T10:32:27.427Z,12.75
2019-05-18T10:33:32.973Z,9.05
2019-05-18T10:34:38.862Z,8.40
2019-05-18T10:35:44.968Z,9.98
2019-05-18T10:36:51.978Z,9.88
2019-05-18T10:37:58.181Z,10.23
2019-05-18T10:39:05.118Z,9.05
2019-05-18T10:40:13.165Z,8.73
2019-05-18T10:41:18.517Z,10.63
2019-05-18T10:42:24.844Z,8.95
2019-05-18T10:43:29.597Z,8.63
2019-05-18T10:44:34.567Z,11.00
2019-05-18T10:45:39.006Z,10.60
2019-05-18T10:46:44.035Z,10.15
2019-05-18T10:47:48.603Z,9.35
2019-05-18T10:48:53.572Z,12.65
2019-05-18T10:49:58.010Z,9.88
2019-05-18T10:51:05.665Z,10.40
2019-05-18T10:52:10.267Z,11.10
2019-05-18T10:53:27.837Z,9.05
2019-05-18T10:54:22.640Z,10.23
2019-05-18T10:55:27.734Z,9.78
2019-05-18T10:56:32.311Z,10.45
2019-05-18T10:57:37.631Z,11.50
2019-05-18T10:58:43.110Z,9.48
2019-05-18T10:59:48.145Z,9.63
2019-05-18T11:00:52.631Z,50.35
2019-05-18T11:01:57.750Z,8.53
2019-05-18T11:03:02.391Z,13.30
2019-05-18T11:04:07.719Z,9.53
2019-05-18T11:05:12.572Z,9.30
2019-05-18T11:06:18.044Z,8.50
2019-05-18T11:07:22.765Z,8.55
2019-05-18T11:08:27.754Z,9.38
2019-05-18T11:09:32.160Z,9.40
2019-05-18T11:10:37.198Z,7.97
2019-05-18T11:11:41.612Z,8.08
2019-05-18T11:12:47.009Z,8.95
2019-05-18T11:13:51.420Z,8.03
2019-05-18T11:14:56.455Z,9.98
2019-05-18T11:16:01.149Z,11.57
2019-05-18T11:17:06.120Z,10.30
2019-05-18T11:18:10.922Z,8.60
2019-05-18T11:19:16.238Z,11.78
2019-05-18T11:20:21.172Z,12.10
2019-05-18T11:21:26.420Z,10.90
2019-05-18T11:22:31.030Z,9.63
2019-05-18T11:23:44.206Z,9.13
2019-05-18T11:24:42.171Z,8.93
2019-05-18T11:25:47.155Z,10.38
2019-05-18T11:26:51.563Z,7.47
2019-05-18T11:27:56.528Z,9.25
2019-05-18T11:29:00.971Z,9.58
2019-05-18T11:30:08.555Z,13.20
2019-05-18T11:31:14.342Z,8.73
2019-05-18T11:32:19.323Z,7.72
2019-05-18T11:33:23.846Z,8.65
2019-05-18T11:34:28.868Z,8.25
2019-05-18T11:35:33.555Z,8.68
2019-05-18T11:36:38.528Z,10.53
2019-05-18T11:37:43.008Z,9.78
2019-05-18T11:38:48.067Z,9.50
2019-05-18T11:39:52.824Z,8.98
2019-05-18T11:40:57.865Z,8.78
2019-05-18T11:42:02.281Z,8.83
2019-05-18T11:43:07.250Z,9.90
2019-05-18T11:44:11.682Z,9.88
2019-05-18T11:45:19.942Z,10.80
2019-05-18T11:46:24.380Z,11.10
2019-05-18T11:47:29.354Z,9.63
2019-05-18T11:48:33.791Z,10.48
2019-05-18T11:49:38.761Z,9.60
2019-05-18T11:50:43.176Z,9.70
2019-05-18T11:51:49.124Z,9.63
2019-05-18T11:52:53.620Z,11.65
2019-05-18T11:53:58.801Z,9.30
2019-05-18T11:55:06.335Z,8.93
2019-05-18T11:56:11.585Z,11.40
2019-05-18T11:57:16.154Z,9.80
2019-05-18T11:58:21.192Z,9.95
2019-05-18T11:59:25.623Z,9.85
2019-05-18T12:00:31.318Z,10.43
2019-05-18T12:01:35.869Z,9.90
2019-05-18T12:02:41.180Z,9.83
2019-05-18T12:03:45.887Z,9.25
2019-05-18T12:04:50.846Z,9.83
2019-05-18T12:05:55.256Z,9.75
2019-05-18T12:07:01.219Z,24.95
2019-05-18T12:08:06.774Z,10.28
2019-05-18T12:09:11.764Z,12.53
2019-05-18T12:10:18.580Z,10.53
2019-05-18T12:11:23.503Z,11.25
2019-05-18T12:12:28.222Z,9.43
2019-05-18T12:13:33.195Z,8.03
2019-05-18T12:14:37.623Z,9.25
2019-05-18T12:15:42.730Z,9.35
2019-05-18T12:16:47.445Z,11.30
2019-05-18T12:17:52.421Z,10.30
2019-05-18T12:18:57.646Z,9.23
2019-05-18T12:20:02.841Z,10.28
2019-05-18T12:21:07.916Z,38.28
2019-05-18T12:22:12.877Z,8.65
2019-05-18T12:23:17.632Z,9.23
2019-05-18T12:24:22.621Z,8.88
2019-05-18T12:25:27.026Z,9.18
2019-05-18T12:26:32.344Z,8.88
2019-05-18T12:27:36.789Z,9.70
2019-05-18T12:28:41.776Z,7.50
2019-05-18T12:29:46.209Z,9.30
2019-05-18T12:30:51.180Z,10.05
2019-05-18T12:31:55.660Z,8.15
2019-05-18T12:33:00.635Z,9.88
2019-05-18T12:34:05.139Z,8.78
2019-05-18T12:35:10.641Z,9.70
2019-05-18T12:36:15.869Z,9.35
2019-05-18T12:37:23.803Z,7.12
2019-05-18T12:38:28.231Z,9.15
2019-05-18T12:39:33.291Z,6.92
2019-05-18T12:40:37.712Z,7.25
2019-05-18T12:41:42.736Z,7.15
2019-05-18T12:42:48.371Z,7.33
2019-05-18T12:43:53.353Z,6.83
2019-05-18T12:44:57.785Z,6.53
2019-05-18T12:46:02.888Z,8.88
2019-05-18T12:47:07.670Z,8.73
2019-05-18T12:48:12.762Z,7.10
2019-05-18T12:49:17.212Z,5.92
2019-05-18T12:50:22.909Z,7.60
2019-05-18T12:51:27.392Z,6.62
2019-05-18T12:52:32.356Z,6.67
2019-05-18T12:53:36.786Z,7.60
2019-05-18T12:54:46.586Z,6.97
2019-05-18T12:55:48.507Z,6.53
2019-05-18T12:56:53.553Z,5.60
2019-05-18T12:57:57.963Z,6.22
2019-05-18T12:59:03.363Z,6.47
2019-05-18T13:00:09.650Z,7.03
2019-05-18T13:01:14.870Z,8.35
2019-05-18T13:02:20.268Z,5.92
2019-05-18T13:03:25.234Z,6.37
2019-05-18T13:04:30.057Z,5.65
2019-05-18T13:05:35.182Z,6.08
2019-05-18T13:06:39.585Z,8.40
2019-05-18T13:07:44.619Z,6.90
2019-05-18T13:08:49.027Z,6.42
2019-05-18T13:09:55.197Z,6.70
2019-05-18T13:10:59.606Z,6.70
2019-05-18T13:12:04.637Z,6.22
2019-05-18T13:13:09.265Z,5.97
2019-05-18T13:14:14.230Z,5.78
2019-05-18T13:15:19.501Z,5.53
2019-05-18T13:16:24.470Z,5.92
2019-05-18T13:17:28.882Z,6.87
2019-05-18T13:18:33.855Z,5.85
2019-05-18T13:19:38.424Z,6.03
2019-05-18T13:20:43.393Z,6.37
2019-05-18T13:21:47.810Z,5.65
2019-05-18T13:22:52.773Z,7.17
2019-05-18T13:23:57.495Z,5.70
2019-05-18T13:25:02.482Z,6.70
2019-05-18T13:26:07.050Z,6.03
2019-05-18T13:27:12.010Z,6.08
2019-05-18T13:28:16.420Z,6.25
2019-05-18T13:29:21.489Z,7.05
2019-05-18T13:30:26.239Z,5.70
2019-05-18T13:31:31.285Z,6.75
2019-05-18T13:32:35.762Z,6.65
2019-05-18T13:33:40.877Z,5.40
2019-05-18T13:34:45.400Z,6.53
2019-05-18T13:35:50.432Z,6.58
2019-05-18T13:36:54.907Z,6.87
2019-05-18T13:38:06.551Z,6.48
2019-05-18T13:39:11.038Z,6.25
2019-05-18T13:40:17.272Z,5.90
2019-05-18T13:41:21.707Z,5.53
2019-05-18T13:42:27.968Z,6.90
2019-05-18T13:43:32.643Z,5.83
2019-05-18T13:44:38.267Z,5.45
2019-05-18T13:45:43.864Z,9.40
2019-05-18T13:46:48.825Z,6.92
2019-05-18T13:47:53.243Z,6.22
2019-05-18T13:48:58.235Z,8.80
2019-05-18T13:50:02.741Z,5.22
2019-05-18T13:51:08.014Z,5.75
2019-05-18T13:52:12.492Z,6.45
2019-05-18T13:53:17.455Z,5.45
2019-05-18T13:54:21.888Z,5.58
2019-05-18T13:55:27.245Z,5.70
2019-05-18T13:56:31.944Z,6.20
2019-05-18T13:57:37.166Z,6.85
2019-05-18T13:58:41.559Z,8.83
2019-05-18T13:59:46.789Z,6.70
2019-05-18T14:00:51.221Z,6.17
2019-05-18T14:01:56.183Z,5.90
2019-05-18T14:03:00.765Z,6.22